Pos First Name Last Name YOB Country Start
Num
Time Swim T1 Bike T2 Run
1 Daniil Kondrashov 2000 RUS 42 00:26:12 00:03:51 00:00:48 00:13:27 00:00:23 00:07:43
2 André Bôto 2000 POR 47 00:26:17 00:04:18 00:00:54 00:13:00 00:00:25 00:07:41
3 Matteo Nonino 2001 ITA 44 00:26:27 00:00:00 00:00:00 00:00:00 00:00:00 00:00:00
4 Veikka Saren 2002 FIN 45 00:26:28 00:04:23 00:00:54 00:12:55 00:00:25 00:07:51
5 Nitai Mayo 2000 ISR 49 00:26:30 00:04:24 00:00:52 00:12:51 00:00:23 00:08:00
6 Briac Tence 2002 FRA 51 00:26:36 00:04:16 00:00:54 00:12:59 00:00:25 00:08:02
7 Erick Rogoz Lörincz 2001 ROU 59 00:26:39 00:04:28 00:00:48 00:12:54 00:00:22 00:08:07
8 Manuel Dal Ben 2000 SUI 46 00:26:42 00:03:54 00:00:57 00:13:18 00:00:25 00:08:08
9 Niklaus Straussberger 2000 AUT 56 00:26:44 00:04:08 00:00:50 00:13:15 00:00:26 00:08:06
10 Vitalii Vorontsov 2000 UKR 63 00:26:45 00:04:32 00:00:53 00:13:11 00:00:26 00:07:43
11 Elias Biesemans 2000 BEL 67 00:26:45 00:04:24 00:00:52 00:12:56 00:00:24 00:08:09
12 Thomas Guilmot 2000 BEL 53 00:26:46 00:04:14 00:00:58 00:12:58 00:00:22 00:08:14
13 Artjoms Gajevskis 2000 LAT 43 00:26:46 00:04:09 00:00:51 00:13:11 00:00:23 00:08:12
14 Valentin Marievskiy 2000 UKR 61 00:26:49 00:04:35 00:00:52 00:13:00 00:00:26 00:07:56
15 Cristian Virgil Tranulea 2000 ROU 60 00:26:56 00:04:00 00:00:56 00:13:16 00:00:24 00:08:20
16 Vasyl Vynnytskyi 2002 UKR 55 00:26:57 00:04:27 00:00:52 00:13:18 00:00:24 00:07:58
17 Radim Grebík 2001 CZE 50 00:27:07 00:04:22 00:00:52 00:13:23 00:00:25 00:08:05
18 Kyrylo Novikov 2000 UKR 58 00:27:10 00:04:36 00:00:51 00:13:09 00:00:26 00:08:08
19 Tsikhan Shchamialiou 2000 BLR 52 00:27:11 00:04:24 00:00:50 00:12:54 00:00:23 00:08:41
20 Kuba Kowalski 2000 POL 70 00:27:16 00:04:18 00:00:56 00:12:58 00:00:24 00:08:41
21 Lukas Prokopavicius 2001 LTU 69 00:27:21 00:04:36 00:00:49 00:13:10 00:00:25 00:08:22
22 Dawid Goryński 2000 POL 66 00:27:29 00:04:36 00:00:53 00:13:02 00:00:26 00:08:32
23 Scott Steenberg 2000 DEN 54 00:27:35 00:04:26 00:00:52 00:12:56 00:00:23 00:08:59
24 Denis Kolobrodov 2001 RUS 48 00:27:46 00:04:04 00:00:53 00:14:01 00:00:27 00:08:22
25 Johan Tamm 2002 EST 62 00:28:06 00:04:16 00:00:57 00:13:02 00:00:24 00:09:28
26 Enes Kızılcık 2001 TUR 68 00:28:30 00:04:21 00:00:53 00:13:05 00:00:29 00:09:42
27 Ilia Fedorov 2000 RUS 57 00:28:37 00:04:29 00:00:56 00:14:12 00:00:28 00:08:32
28 Szymon Dzik 2000 POL 64 00:28:59 00:04:26 00:00:57 00:13:11 00:00:26 00:09:59
DSQ Alexandre Silva 2002 POR 41 DSQ 00:04:02 00:00:54 00:13:15 00:00:23 00:07:49
DNF Christoph Pölzgutter 2000 AUT 65 DNF 00:04:18 00:00:00 00:00:00 00:00:00 00:00:00
Program notes:

Technical Delegate: Daniel Martin/AUT. Race Referee: Siim Vollmer/EST. Competition Jury: Daniel Martin/AUT, Renato Bertrandi/ITA, Dainus Kopustas/LTU. Distances: Swim 300 m (1 lap), Bike 8.55 km (3 laps), Run 2.35 km (2 laps). Water temperature 22.8ºC. Air Temperature 20.9ºC. Wetsuits not allowed. Athetes, #50 Grebik/CZE, #62 Tamm/EST, #65 Polzgutter/AUT, #68 Kizilcik/TUR and #69 Prokopavicius/LTU served a 10 seconds penalty during the run segment. Athlete #41 Silva/POR was disqualified because he shortcut the run course.